Time;durP1;ratioP1;P1;durP2;ratioP2;P2;SDS_P1;SDS_P2;PMS_P1;PMS_P2;Temp;Humidity;BMP_temperature;BMP_pressure;BME280_temperature;BME280_humidity;BME280_pressure;Samples;Min_cycle;Max_cycle;Signal;HPM_P1;HPM_P2
2021/10/18 00:01:42;;;;;;;19.50;13.55;;;6.50;99.90;;;;;;5072469;28;20229;-77
2021/10/18 00:04:09;;;;;;;20.08;13.93;;;6.50;99.90;;;;;;5071270;28;20212;-77
2021/10/18 00:06:36;;;;;;;21.48;13.52;;;6.60;99.90;;;;;;5071524;28;20301;-77
2021/10/18 00:09:05;;;;;;;16.45;13.40;;;6.60;99.90;;;;;;5065726;28;20198;-77
2021/10/18 00:11:32;;;;;;;17.02;12.48;;;6.50;99.90;;;;;;5056390;28;20205;-77
2021/10/18 00:13:59;;;;;;;19.00;13.73;;;6.50;99.90;;;;;;5056316;28;20211;-78
2021/10/18 00:16:26;;;;;;;17.95;13.15;;;6.50;99.90;;;;;;5065954;28;20604;-77
2021/10/18 00:18:53;;;;;;;16.85;13.18;;;6.50;99.90;;;;;;5054702;28;20206;-77
2021/10/18 00:21:20;;;;;;;19.35;13.50;;;6.50;99.90;;;;;;5055703;28;20297;-77
2021/10/18 00:23:46;;;;;;;18.58;13.07;;;6.50;99.90;;;;;;5055917;28;20272;-78
2021/10/18 00:26:17;;;;;;;18.95;13.48;;;6.40;99.90;;;;;;5054899;28;20308;-78
2021/10/18 00:28:44;;;;;;;14.75;11.52;;;6.40;99.90;;;;;;5062463;28;20224;-79
2021/10/18 00:31:11;;;;;;;14.27;11.50;;;6.40;99.90;;;;;;5064110;28;20240;-78
2021/10/18 00:33:38;;;;;;;19.98;11.35;;;6.40;99.90;;;;;;5064456;28;20206;-78
2021/10/18 00:36:06;;;;;;;16.63;11.98;;;6.30;99.90;;;;;;5063656;28;20323;-78
2021/10/18 00:38:32;;;;;;;15.90;11.93;;;6.30;99.90;;;;;;5061501;28;20205;-78
2021/10/18 00:40:59;;;;;;;14.80;12.05;;;6.20;99.90;;;;;;5055022;28;20243;-78
2021/10/18 00:43:27;;;;;;;17.67;12.85;;;6.20;99.90;;;;;;5054772;28;20208;-78
2021/10/18 00:45:54;;;;;;;16.80;11.73;;;6.20;99.90;;;;;;5057469;28;20297;-78
2021/10/18 00:48:21;;;;;;;18.10;13.27;;;6.10;99.90;;;;;;5059218;28;20213;-78
2021/10/18 00:50:51;;;;;;;16.00;12.25;;;6.20;99.90;;;;;;5058385;28;20244;-78
2021/10/18 00:53:18;;;;;;;14.00;12.13;;;6.20;99.90;;;;;;5056944;28;20205;-78
2021/10/18 00:55:45;;;;;;;15.00;12.75;;;6.20;99.90;;;;;;5058282;28;20275;-77
2021/10/18 00:58:12;;;;;;;17.92;11.75;;;6.10;99.90;;;;;;5056421;28;20212;-77
2021/10/18 01:00:40;;;;;;;15.05;12.23;;;6.10;99.90;;;;;;5065120;28;20300;-78
2021/10/18 01:03:08;;;;;;;14.02;11.75;;;6.10;99.90;;;;;;5066139;28;20241;-78
2021/10/18 01:05:36;;;;;;;15.45;12.80;;;6.20;99.90;;;;;;5066228;28;20248;-77
2021/10/18 01:08:03;;;;;;;14.88;12.52;;;6.20;99.90;;;;;;5065844;28;20216;-77
2021/10/18 01:10:30;;;;;;;18.40;13.65;;;6.20;99.90;;;;;;5062516;28;20208;-78
2021/10/18 01:12:57;;;;;;;14.45;12.93;;;6.20;99.90;;;;;;5059190;28;20591;-78
2021/10/18 01:15:24;;;;;;;16.80;13.43;;;6.20;99.90;;;;;;5056306;28;20320;-78
2021/10/18 01:17:52;;;;;;;17.25;13.88;;;6.20;99.90;;;;;;5058091;28;20581;-78
2021/10/18 01:20:29;;;;;;;16.38;12.63;;;6.30;99.90;;;;;;5061700;28;20273;-78
2021/10/18 01:22:56;;;;;;;16.35;13.75;;;6.20;99.90;;;;;;5063244;28;20209;-78
2021/10/18 01:25:24;;;;;;;16.63;12.80;;;6.20;99.90;;;;;;5057722;28;20308;-78
2021/10/18 01:27:51;;;;;;;13.93;12.30;;;6.20;99.90;;;;;;5056422;28;20580;-77
2021/10/18 01:30:18;;;;;;;16.38;12.40;;;6.20;99.90;;;;;;5056129;28;20224;-77
2021/10/18 01:32:46;;;;;;;14.35;12.75;;;6.10;99.90;;;;;;5056538;28;20304;-78
2021/10/18 01:35:12;;;;;;;15.80;12.85;;;6.10;99.90;;;;;;5056423;28;20234;-77
2021/10/18 01:37:41;;;;;;;15.77;13.10;;;6.00;99.90;;;;;;5055729;28;20277;-77
2021/10/18 01:40:09;;;;;;;13.38;11.23;;;6.00;99.90;;;;;;5053609;28;20301;-77
2021/10/18 01:42:36;;;;;;;14.68;11.90;;;6.00;99.90;;;;;;5053654;28;20220;-78
2021/10/18 01:45:03;;;;;;;16.05;12.38;;;5.90;99.90;;;;;;5053577;28;20232;-77
2021/10/18 01:47:30;;;;;;;16.35;12.13;;;5.90;99.90;;;;;;5055955;28;20232;-78
2021/10/18 01:49:57;;;;;;;15.00;13.25;;;5.90;99.90;;;;;;5055669;28;20210;-78
2021/10/18 01:52:24;;;;;;;18.13;13.40;;;5.80;99.90;;;;;;5055676;28;20236;-78
2021/10/18 01:54:52;;;;;;;17.13;13.40;;;5.80;99.90;;;;;;5054520;28;20228;-78
2021/10/18 01:57:19;;;;;;;16.52;13.25;;;5.70;99.90;;;;;;5054991;28;20227;-78
2021/10/18 01:59:46;;;;;;;14.18;12.70;;;5.70;99.90;;;;;;5055090;28;20298;-79
2021/10/18 02:02:13;;;;;;;17.67;14.23;;;5.70;99.90;;;;;;5054072;28;20228;-77
2021/10/18 02:04:40;;;;;;;15.38;13.75;;;5.60;99.90;;;;;;5053893;28;20209;-77
2021/10/18 02:07:06;;;;;;;15.40;13.32;;;5.60;99.90;;;;;;5058818;28;20350;-78
2021/10/18 02:09:33;;;;;;;18.35;12.60;;;5.60;99.90;;;;;;5067680;28;20280;-77
2021/10/18 02:12:01;;;;;;;14.88;13.25;;;5.60;99.90;;;;;;5068435;28;20209;-78
2021/10/18 02:14:28;;;;;;;15.73;13.63;;;5.60;99.90;;;;;;5071067;28;20215;-78
2021/10/18 02:16:55;;;;;;;15.75;13.35;;;5.60;99.90;;;;;;5066928;28;20236;-78
2021/10/18 02:19:22;;;;;;;14.82;13.27;;;5.60;99.90;;;;;;5064925;28;20676;-78
2021/10/18 02:21:49;;;;;;;16.08;13.57;;;5.60;99.90;;;;;;5064962;28;20271;-78
2021/10/18 02:24:15;;;;;;;17.25;14.02;;;5.60;99.90;;;;;;5064039;28;20241;-79
2021/10/18 02:26:42;;;;;;;17.58;14.48;;;5.60;99.90;;;;;;5057379;28;20225;-78
2021/10/18 02:29:11;;;;;;;15.20;13.15;;;5.60;99.90;;;;;;5053918;28;20662;-77
2021/10/18 02:31:38;;;;;;;19.17;14.25;;;5.50;99.90;;;;;;5055976;28;20272;-78
2021/10/18 02:34:05;;;;;;;18.90;14.60;;;5.50;99.90;;;;;;5069883;28;20237;-77
2021/10/18 02:36:32;;;;;;;15.77;12.90;;;5.50;99.90;;;;;;5074444;28;20254;-78
2021/10/18 02:38:59;;;;;;;16.02;13.75;;;5.40;99.90;;;;;;5074924;28;20269;-78
2021/10/18 02:41:26;;;;;;;16.00;12.80;;;5.50;99.90;;;;;;5068424;28;20273;-78
2021/10/18 02:43:53;;;;;;;14.18;12.75;;;5.50;99.90;;;;;;5060542;28;20213;-79
2021/10/18 02:46:21;;;;;;;14.45;12.88;;;5.40;99.90;;;;;;5058146;28;20322;-78
2021/10/18 02:48:48;;;;;;;14.43;12.93;;;5.40;99.90;;;;;;5053933;28;20234;-77
2021/10/18 02:51:15;;;;;;;15.23;13.45;;;5.40;99.90;;;;;;5053361;28;20212;-77
2021/10/18 02:53:42;;;;;;;16.23;13.43;;;5.40;99.90;;;;;;5052650;28;20205;-77
2021/10/18 02:56:09;;;;;;;15.63;13.55;;;5.40;99.90;;;;;;5052191;28;20238;-77
2021/10/18 02:58:36;;;;;;;16.70;13.93;;;5.40;99.90;;;;;;5052623;28;20749;-78
2021/10/18 03:01:03;;;;;;;13.90;12.40;;;5.40;99.90;;;;;;5052515;28;20296;-78
2021/10/18 03:03:32;;;;;;;14.02;12.52;;;5.40;99.90;;;;;;5052769;28;20300;-77
2021/10/18 03:05:59;;;;;;;14.52;12.85;;;5.40;99.90;;;;;;5056239;28;20221;-77
2021/10/18 03:08:25;;;;;;;14.85;13.35;;;5.40;99.90;;;;;;5056684;28;20665;-79
2021/10/18 03:10:52;;;;;;;15.55;13.90;;;5.40;99.90;;;;;;5056589;28;20682;-78
2021/10/18 03:13:20;;;;;;;16.20;13.02;;;5.30;99.90;;;;;;5057345;28;20240;-78
2021/10/18 03:15:47;;;;;;;14.82;12.30;;;5.30;99.90;;;;;;5066737;28;20244;-78
2021/10/18 03:18:13;;;;;;;14.63;12.93;;;5.40;99.90;;;;;;5079605;28;20216;-77
2021/10/18 03:20:42;;;;;;;15.27;13.10;;;5.30;99.90;;;;;;5078956;28;20204;-78
2021/10/18 03:23:09;;;;;;;15.13;13.00;;;5.40;99.90;;;;;;5078519;28;20203;-78
2021/10/18 03:25:35;;;;;;;13.82;12.43;;;5.30;99.90;;;;;;5069883;28;20745;-79
2021/10/18 03:28:03;;;;;;;13.60;11.52;;;5.30;99.90;;;;;;5062533;28;20247;-77
2021/10/18 03:30:31;;;;;;;16.23;11.52;;;5.30;99.90;;;;;;5058109;28;20209;-78
2021/10/18 03:32:58;;;;;;;14.70;12.48;;;5.30;99.90;;;;;;5056819;28;20208;-77
2021/10/18 03:35:25;;;;;;;14.30;12.60;;;5.30;99.90;;;;;;5056201;28;20327;-77
2021/10/18 03:37:53;;;;;;;13.05;11.45;;;5.20;99.90;;;;;;5055413;28;20678;-78
2021/10/18 03:40:20;;;;;;;13.32;11.80;;;5.20;99.90;;;;;;5056197;28;20233;-77
2021/10/18 03:42:47;;;;;;;14.32;11.65;;;5.20;99.90;;;;;;5056308;28;20224;-77
2021/10/18 03:45:14;;;;;;;12.50;10.82;;;5.20;99.90;;;;;;5067932;22;20241;-77
2021/10/18 03:47:41;;;;;;;11.70;10.50;;;5.20;99.90;;;;;;5035899;28;20645;-76
2021/10/18 03:50:10;;;;;;;13.23;11.68;;;5.20;99.90;;;;;;5035759;28;20215;-77
2021/10/18 03:52:37;;;;;;;15.43;11.65;;;5.20;99.90;;;;;;5035159;28;20308;-77
2021/10/18 03:55:05;;;;;;;12.70;11.35;;;5.20;99.90;;;;;;5033719;28;20250;-77
2021/10/18 03:57:32;;;;;;;13.75;11.10;;;5.10;99.90;;;;;;5014894;28;20243;-77
2021/10/18 03:59:59;;;;;;;14.20;10.88;;;5.10;99.90;;;;;;5014151;28;20306;-78
2021/10/18 04:02:26;;;;;;;12.55;11.10;;;5.10;99.90;;;;;;5014805;28;20210;-78
2021/10/18 04:04:53;;;;;;;11.32;10.10;;;5.10;99.90;;;;;;5015123;28;20214;-78
2021/10/18 04:07:20;;;;;;;12.18;10.52;;;5.00;99.90;;;;;;5014699;28;20327;-78
2021/10/18 04:09:48;;;;;;;12.38;10.35;;;5.00;99.90;;;;;;5014424;28;20325;-78
2021/10/18 04:12:16;;;;;;;11.55;10.05;;;4.90;99.90;;;;;;5014625;28;20213;-78
2021/10/18 04:14:42;;;;;;;12.20;9.85;;;5.00;99.90;;;;;;5016515;28;20215;-78
2021/10/18 04:17:09;;;;;;;11.35;10.15;;;4.90;99.90;;;;;;5019579;28;20265;-79
2021/10/18 04:19:36;;;;;;;12.48;10.77;;;4.90;99.90;;;;;;5015038;28;20207;-78
2021/10/18 04:22:03;;;;;;;11.55;10.35;;;4.90;99.90;;;;;;5015224;28;20239;-78
2021/10/18 04:24:30;;;;;;;13.35;10.98;;;4.90;99.90;;;;;;5017802;28;20210;-79
2021/10/18 04:26:57;;;;;;;11.35;10.23;;;4.90;99.90;;;;;;5026694;28;20279;-78
2021/10/18 04:29:25;;;;;;;11.82;10.45;;;4.90;99.90;;;;;;5027222;28;20205;-78
2021/10/18 04:31:57;;;;;;;13.52;11.75;;;4.80;99.90;;;;;;5030169;28;20204;-79
2021/10/18 04:34:24;;;;;;;13.82;11.20;;;4.80;99.90;;;;;;5033376;28;20214;-77
2021/10/18 04:36:52;;;;;;;14.00;12.35;;;4.80;99.90;;;;;;5024620;28;20233;-78
2021/10/18 04:39:19;;;;;;;23.23;12.93;;;4.70;99.90;;;;;;5021847;28;20241;-78
2021/10/18 04:41:47;;;;;;;13.32;11.93;;;4.70;99.90;;;;;;5017539;28;20220;-78
2021/10/18 04:44:13;;;;;;;11.60;10.40;;;4.60;99.90;;;;;;5015756;28;20209;-78
2021/10/18 04:46:42;;;;;;;17.58;13.13;;;4.60;99.90;;;;;;5014222;28;20325;-78
2021/10/18 04:49:09;;;;;;;12.90;11.50;;;4.60;99.90;;;;;;5013825;28;20214;-77
2021/10/18 04:51:36;;;;;;;14.85;11.38;;;4.60;99.90;;;;;;5014403;28;20232;-78
2021/10/18 04:54:03;;;;;;;12.80;11.00;;;4.60;99.90;;;;;;5014998;28;20244;-79
2021/10/18 04:56:30;;;;;;;12.68;11.38;;;4.50;99.90;;;;;;5014393;28;20559;-79
2021/10/18 04:58:57;;;;;;;12.23;9.80;;;4.60;99.90;;;;;;5014334;28;20256;-79
2021/10/18 05:01:23;;;;;;;15.77;11.82;;;4.60;99.90;;;;;;5014488;28;20238;-76
2021/10/18 05:03:52;;;;;;;13.98;11.10;;;4.60;99.90;;;;;;5013624;28;20600;-77
2021/10/18 05:06:18;;;;;;;12.05;10.75;;;4.60;99.90;;;;;;5013998;28;20220;-78
2021/10/18 05:08:45;;;;;;;12.70;10.60;;;4.60;99.90;;;;;;5014201;28;20221;-78
2021/10/18 05:11:12;;;;;;;12.50;10.55;;;4.70;99.90;;;;;;5017099;28;20212;-78
2021/10/18 05:13:39;;;;;;;12.88;10.98;;;4.80;99.90;;;;;;5026660;28;20274;-77
2021/10/18 05:16:06;;;;;;;12.23;10.80;;;4.80;99.90;;;;;;5021504;28;20327;-76
2021/10/18 05:18:33;;;;;;;13.02;11.07;;;4.90;99.90;;;;;;5017657;28;20303;-77
2021/10/18 05:21:05;;;;;;;12.75;11.25;;;5.00;99.90;;;;;;5015381;28;20210;-78
2021/10/18 05:23:32;;;;;;;12.95;10.98;;;5.00;99.90;;;;;;5015588;28;20205;-79
2021/10/18 05:25:59;;;;;;;14.05;10.52;;;5.00;99.90;;;;;;5016044;28;20693;-79
2021/10/18 05:28:26;;;;;;;14.23;11.07;;;5.00;99.90;;;;;;5017318;28;20320;-79
2021/10/18 05:30:53;;;;;;;13.88;11.77;;;5.00;99.90;;;;;;5018666;28;20224;-79
2021/10/18 05:33:21;;;;;;;13.85;11.32;;;5.20;99.90;;;;;;5019323;28;20215;-80
2021/10/18 05:35:47;;;;;;;15.52;10.65;;;5.20;99.90;;;;;;5021238;28;20242;-80
2021/10/18 05:38:19;;;;;;;13.90;11.73;;;5.40;99.90;;;;;;5017825;28;20224;-80
2021/10/18 05:40:46;;;;;;;13.55;10.27;;;5.40;99.90;;;;;;5017759;28;20644;-80
2021/10/18 05:43:14;;;;;;;11.85;10.18;;;5.50;99.90;;;;;;5017707;28;20239;-80
2021/10/18 05:45:46;;;;;;;13.90;11.13;;;5.50;99.90;;;;;;5017372;28;20231;-79
2021/10/18 05:48:14;;;;;;;17.90;9.85;;;5.50;99.90;;;;;;5020130;28;20236;-80
2021/10/18 05:50:44;;;;;;;15.13;10.68;;;5.50;99.90;;;;;;5020818;28;20230;-80
2021/10/18 05:53:11;;;;;;;12.73;10.25;;;5.50;99.90;;;;;;5034014;28;20210;-80
2021/10/18 05:55:40;;;;;;;13.73;10.25;;;5.50;99.90;;;;;;5022326;28;20227;-81
2021/10/18 05:58:09;;;;;;;10.30;8.65;;;5.50;99.90;;;;;;5027852;28;20245;-80
2021/10/18 06:00:38;;;;;;;13.68;10.35;;;5.40;99.90;;;;;;5035699;28;20203;-81
2021/10/18 06:03:06;;;;;;;14.88;9.88;;;5.40;99.90;;;;;;5032312;28;20248;-81
2021/10/18 06:05:34;;;;;;;12.48;9.52;;;5.40;99.90;;;;;;5029008;28;20231;-81
2021/10/18 06:08:06;;;;;;;13.60;8.70;;;5.40;99.90;;;;;;5018019;28;20208;-80
2021/10/18 06:10:33;;;;;;;14.35;8.50;;;5.40;99.90;;;;;;5029304;28;20226;-80
2021/10/18 06:13:02;;;;;;;13.00;9.93;;;5.40;99.90;;;;;;5017404;28;20237;-79
2021/10/18 06:15:29;;;;;;;11.68;9.13;;;5.30;99.90;;;;;;5017980;28;20218;-80
2021/10/18 06:17:56;;;;;;;12.52;9.25;;;5.30;99.90;;;;;;5015565;28;20230;-79
2021/10/18 06:20:23;;;;;;;11.98;9.07;;;5.20;99.90;;;;;;5020849;28;20222;-78
2021/10/18 06:22:50;;;;;;;12.20;9.55;;;5.20;99.90;;;;;;5015043;28;20215;-81
2021/10/18 06:25:17;;;;;;;14.27;10.15;;;5.20;99.90;;;;;;5015022;28;20257;-78
2021/10/18 06:27:44;;;;;;;13.05;9.32;;;5.30;99.90;;;;;;5014228;28;20214;-79
2021/10/18 06:30:12;;;;;;;11.52;8.85;;;5.40;99.90;;;;;;5019090;28;20237;-79
2021/10/18 06:32:40;;;;;;;10.43;8.02;;;5.40;99.90;;;;;;5023559;28;20218;-79
2021/10/18 06:35:08;;;;;;;11.35;8.70;;;5.50;99.90;;;;;;5016034;28;20215;-76
2021/10/18 06:37:41;;;;;;;13.35;10.25;;;5.50;99.90;;;;;;5041784;28;20280;-79
2021/10/18 06:40:11;;;;;;;12.15;9.95;;;5.60;99.90;;;;;;5035087;28;20194;-80
2021/10/18 06:42:39;;;;;;;13.15;10.00;;;5.60;99.90;;;;;;5031144;28;20670;-81
2021/10/18 06:45:07;;;;;;;13.65;9.23;;;5.60;99.90;;;;;;5027282;28;20217;-79
2021/10/18 06:47:35;;;;;;;10.98;8.82;;;5.60;99.90;;;;;;5021955;28;20250;-79
2021/10/18 06:50:03;;;;;;;11.63;9.07;;;5.70;99.90;;;;;;5022853;28;20289;-79
2021/10/18 06:52:32;;;;;;;11.90;9.23;;;5.80;99.90;;;;;;5020923;28;20242;-78
2021/10/18 06:55:00;;;;;;;10.52;9.07;;;5.80;99.90;;;;;;5021186;28;20260;-78
2021/10/18 06:57:27;;;;;;;11.27;8.70;;;5.90;99.90;;;;;;5019669;28;20706;-80
2021/10/18 06:59:54;;;;;;;11.02;8.05;;;5.90;99.90;;;;;;5020416;28;20211;-80
2021/10/18 07:02:21;;;;;;;12.55;9.00;;;5.80;99.90;;;;;;5023326;28;20203;-77
2021/10/18 07:04:49;;;;;;;10.68;8.70;;;6.00;99.90;;;;;;5030656;28;20242;-78
2021/10/18 07:07:16;;;;;;;13.50;8.77;;;6.10;99.90;;;;;;5028205;28;20277;-78
2021/10/18 07:09:43;;;;;;;10.60;7.80;;;6.20;99.90;;;;;;5021775;28;20237;-78
2021/10/18 07:12:11;;;;;;;10.57;8.40;;;6.20;99.90;;;;;;5020679;28;20215;-78
2021/10/18 07:17:21;;;;;;;12.10;9.07;;;6.20;99.90;;;;;;5023484;28;20227;-79
2021/10/18 07:19:50;;;;;;;13.50;8.93;;;6.30;99.90;;;;;;5019486;28;20621;-81
2021/10/18 07:22:17;;;;;;;11.07;9.15;;;6.40;99.90;;;;;;5021217;28;20282;-79
2021/10/18 07:24:44;;;;;;;11.55;8.85;;;6.40;99.50;;;;;;5021081;28;20301;-78
2021/10/18 07:27:11;;;;;;;12.88;8.80;;;6.30;97.40;;;;;;5020139;28;20329;-78
2021/10/18 07:29:38;;;;;;;12.20;9.00;;;6.30;97.70;;;;;;5021187;28;20206;-77
2021/10/18 07:32:06;;;;;;;9.93;7.93;;;6.40;97.50;;;;;;5022199;28;20218;-80
2021/10/18 07:34:33;;;;;;;11.52;8.48;;;6.50;97.50;;;;;;5024806;28;20238;-78
2021/10/18 07:37:01;;;;;;;12.00;8.90;;;6.70;97.50;;;;;;5024547;28;20588;-78
2021/10/18 07:39:29;;;;;;;11.38;8.32;;;6.70;95.80;;;;;;5024218;28;20316;-78
2021/10/18 07:41:58;;;;;;;10.20;8.50;;;6.70;95.10;;;;;;5023131;28;20277;-78
2021/10/18 07:44:26;;;;;;;12.80;8.63;;;6.90;94.90;;;;;;5024393;28;20218;-78
2021/10/18 07:46:55;;;;;;;12.00;8.45;;;6.80;93.20;;;;;;5022672;28;20230;-78
2021/10/18 07:49:22;;;;;;;10.40;7.88;;;6.70;93.10;;;;;;5019159;28;20235;-78
2021/10/18 07:51:49;;;;;;;12.75;8.00;;;6.70;93.40;;;;;;5020146;28;20220;-78
2021/10/18 07:54:18;;;;;;;10.32;8.00;;;6.70;93.00;;;;;;5021371;28;20239;-77
2021/10/18 07:56:45;;;;;;;11.00;8.57;;;6.80;93.30;;;;;;5021255;28;20306;-78
2021/10/18 07:59:12;;;;;;;10.52;8.65;;;6.80;92.70;;;;;;5021978;28;20215;-78
2021/10/18 08:01:39;;;;;;;13.55;9.10;;;6.90;92.70;;;;;;5023418;28;20228;-79
2021/10/18 08:04:06;;;;;;;14.82;8.23;;;7.00;92.60;;;;;;5024050;28;20702;-77
2021/10/18 08:06:33;;;;;;;11.43;8.85;;;7.20;92.10;;;;;;5022934;28;20299;-79
2021/10/18 08:09:01;;;;;;;10.95;8.60;;;7.20;91.30;;;;;;5022658;28;20215;-79
2021/10/18 08:11:29;;;;;;;10.90;9.13;;;7.30;90.70;;;;;;5023880;28;20215;-78
2021/10/18 08:13:56;;;;;;;14.35;9.02;;;7.40;90.70;;;;;;5021786;28;20281;-79
2021/10/18 08:16:23;;;;;;;14.32;9.65;;;7.50;90.50;;;;;;5020853;28;20641;-79
2021/10/18 08:18:50;;;;;;;17.63;10.98;;;7.60;90.80;;;;;;5019721;28;20227;-79
2021/10/18 08:21:17;;;;;;;17.92;10.77;;;7.70;90.40;;;;;;5017471;28;20344;-78
2021/10/18 08:23:44;;;;;;;18.90;12.05;;;7.60;91.70;;;;;;4998336;28;20243;-77
2021/10/18 08:26:11;;;;;;;19.10;11.20;;;7.60;92.60;;;;;;5009221;28;20235;-77
2021/10/18 08:28:40;;;;;;;18.15;11.95;;;7.60;92.90;;;;;;5017695;28;20222;-77
2021/10/18 08:31:09;;;;;;;18.60;12.27;;;7.70;93.20;;;;;;5015855;28;20259;-75
2021/10/18 08:33:36;;;;;;;22.23;12.65;;;7.80;93.30;;;;;;5010665;28;20215;-76
2021/10/18 08:36:05;;;;;;;21.15;11.93;;;7.90;93.60;;;;;;5017489;28;20230;-77
2021/10/18 08:38:48;;;;;;;20.23;13.10;;;7.90;92.70;;;;;;5017673;28;20255;-77
2021/10/18 08:41:18;;;;;;;21.73;13.45;;;7.80;93.00;;;;;;5019437;28;20235;-77
2021/10/18 08:46:32;;;;;;;23.25;14.35;;;8.00;93.50;;;;;;5016350;28;20617;-76
2021/10/18 08:48:59;;;;;;;22.92;13.93;;;8.10;92.80;;;;;;5017662;28;20295;-79
2021/10/18 08:51:27;;;;;;;22.83;13.00;;;8.10;92.80;;;;;;5016381;28;20227;-76
2021/10/18 08:53:54;;;;;;;23.70;12.73;;;8.20;92.40;;;;;;5015521;28;20215;-76
2021/10/18 08:56:22;;;;;;;20.23;11.95;;;8.30;92.30;;;;;;5016597;28;20406;-77
2021/10/18 08:58:50;;;;;;;20.73;12.75;;;8.40;92.00;;;;;;5014109;28;20741;-78
2021/10/18 09:01:17;;;;;;;15.75;10.93;;;8.40;91.10;;;;;;5030144;28;20232;-78
2021/10/18 09:03:45;;;;;;;19.77;12.13;;;8.70;91.20;;;;;;5027791;28;20204;-77
2021/10/18 09:06:14;;;;;;;19.42;12.73;;;8.70;90.40;;;;;;5018498;28;20307;-75
2021/10/18 09:08:43;;;;;;;19.50;12.55;;;8.90;90.10;;;;;;5008983;28;20243;-76
2021/10/18 09:11:13;;;;;;;22.52;13.73;;;8.80;90.10;;;;;;5005423;28;20227;-76
2021/10/18 09:13:45;;;;;;;26.63;14.65;;;9.00;90.00;;;;;;5010560;28;20200;-76
2021/10/18 09:16:27;;;;;;;21.65;14.38;;;9.30;88.30;;;;;;5017163;28;20381;-77
2021/10/18 09:19:02;;;;;;;24.98;14.55;;;9.20;87.30;;;;;;5015811;28;20319;-77
2021/10/18 09:21:31;;;;;;;22.63;13.80;;;9.20;89.20;;;;;;5017154;28;20294;-78
2021/10/18 09:24:00;;;;;;;20.13;13.20;;;9.40;89.30;;;;;;5016406;28;20204;-78
2021/10/18 09:26:28;;;;;;;17.02;12.57;;;9.50;85.20;;;;;;5015953;28;20259;-77
2021/10/18 09:28:56;;;;;;;20.75;12.98;;;9.70;85.00;;;;;;5015602;28;20208;-77
2021/10/18 09:31:25;;;;;;;17.58;12.00;;;9.80;81.50;;;;;;5016501;28;20236;-77
2021/10/18 09:33:57;;;;;;;19.25;11.98;;;9.90;81.10;;;;;;5017462;28;20291;-77
2021/10/18 09:36:30;;;;;;;16.38;12.02;;;10.20;79.60;;;;;;5027312;28;20239;-78
2021/10/18 09:39:19;;;;;;;16.23;11.20;;;10.50;76.70;;;;;;5032028;28;20303;-78
2021/10/18 09:41:57;;;;;;;20.50;13.65;;;10.70;75.20;;;;;;5034423;28;20219;-77
2021/10/18 09:44:46;;;;;;;20.35;14.77;;;10.30;75.00;;;;;;5034817;28;20231;-76
2021/10/18 10:52:58;;;;;;;17.63;12.65;;;11.60;69.10;;;;;;4999963;28;20568;-76
2021/10/18 10:55:29;;;;;;;19.23;12.95;;;11.70;66.90;;;;;;5006583;28;20283;-76
2021/10/18 10:57:58;;;;;;;15.48;11.27;;;11.70;65.90;;;;;;5017472;28;20229;-77
2021/10/18 11:00:34;;;;;;;17.00;12.50;;;11.70;66.90;;;;;;5017311;28;20211;-78
2021/10/18 11:03:42;;;;;;;14.40;11.20;;;11.90;65.20;;;;;;5047930;22;20641;-80
2021/10/18 11:06:11;;;;;;;17.55;12.88;;;12.00;63.80;;;;;;5040410;28;20236;-79
2021/10/18 11:08:41;;;;;;;17.00;11.18;;;12.20;63.20;;;;;;5068993;28;20263;-80
2021/10/18 11:11:16;;;;;;;17.70;12.20;;;12.30;63.00;;;;;;5056427;28;20243;-80
2021/10/18 11:13:45;;;;;;;18.17;12.90;;;12.30;62.70;;;;;;5052957;28;20236;-80
2021/10/18 11:16:12;;;;;;;19.52;12.50;;;12.30;62.30;;;;;;5044855;28;20207;-79
2021/10/18 11:18:40;;;;;;;16.38;11.95;;;12.30;62.70;;;;;;5040141;28;20257;-79
2021/10/18 11:21:14;;;;;;;15.95;12.30;;;12.30;61.30;;;;;;5022545;28;20299;-79
2021/10/18 11:23:59;;;;;;;16.63;12.30;;;12.30;61.90;;;;;;5018296;28;20226;-80
2021/10/18 11:26:28;;;;;;;17.80;12.90;;;12.60;61.40;;;;;;5035101;28;20226;-79
2021/10/18 11:28:57;;;;;;;20.08;12.55;;;12.70;61.10;;;;;;5037347;28;20686;-79
2021/10/18 11:31:29;;;;;;;15.27;11.73;;;12.80;60.20;;;;;;5031621;28;20289;-81
2021/10/18 11:34:10;;;;;;;14.00;11.40;;;13.00;59.50;;;;;;5026901;28;20773;-79
2021/10/18 11:36:40;;;;;;;10.80;9.63;;;13.10;60.20;;;;;;5051571;28;20301;-79
2021/10/18 11:39:16;;;;;;;12.63;10.18;;;13.40;60.80;;;;;;5044491;28;20265;-79
2021/10/18 11:42:06;;;;;;;11.82;10.52;;;13.20;60.30;;;;;;5053224;28;20206;-80
2021/10/18 11:44:49;;;;;;;10.75;9.63;;;12.70;61.90;;;;;;5053748;28;20247;-79
2021/10/18 11:47:33;;;;;;;14.07;10.70;;;13.10;62.00;;;;;;5055380;28;20222;-81
2021/10/18 11:50:09;;;;;;;15.85;12.25;;;13.30;61.70;;;;;;5052566;28;20238;-78
2021/10/18 11:52:41;;;;;;;15.65;12.55;;;13.50;59.70;;;;;;5047502;28;20266;-79
2021/10/18 11:55:09;;;;;;;14.70;11.52;;;13.40;59.80;;;;;;5047747;28;20370;-79
2021/10/18 11:57:39;;;;;;;14.35;11.40;;;13.20;59.90;;;;;;5047815;28;20275;-79
2021/10/18 12:00:09;;;;;;;12.93;10.85;;;13.30;60.60;;;;;;5047415;28;20764;-79
2021/10/18 12:02:42;;;;;;;13.32;11.90;;;13.40;60.30;;;;;;5031933;28;20208;-79
2021/10/18 12:05:09;;;;;;;14.02;11.68;;;13.50;60.00;;;;;;5033218;28;20212;-80
2021/10/18 12:07:43;;;;;;;13.80;12.10;;;13.60;58.60;;;;;;5054806;28;20217;-79
2021/10/18 12:10:19;;;;;;;15.20;11.70;;;13.70;58.50;;;;;;5054980;28;20193;-80
2021/10/18 12:13:16;;;;;;;13.98;11.68;;;13.80;58.50;;;;;;5037974;28;20203;-80
2021/10/18 12:15:58;;;;;;;17.95;12.00;;;14.00;57.30;;;;;;5039954;28;20227;-80
2021/10/18 12:18:27;;;;;;;14.65;12.52;;;14.10;56.90;;;;;;5038448;28;20246;-79
2021/10/18 12:20:56;;;;;;;15.05;12.40;;;14.20;55.70;;;;;;5034616;28;20200;-79
2021/10/18 12:23:26;;;;;;;14.35;11.40;;;14.30;55.50;;;;;;5049484;28;20219;-80
2021/10/18 12:26:03;;;;;;;12.73;11.32;;;14.40;54.80;;;;;;5027022;28;20218;-78
2021/10/18 12:28:53;;;;;;;12.95;11.05;;;14.50;54.90;;;;;;5015577;28;20235;-80
2021/10/18 12:31:36;;;;;;;13.55;10.95;;;14.70;55.00;;;;;;5012262;28;20208;-78
2021/10/18 12:34:06;;;;;;;15.48;12.95;;;14.90;53.90;;;;;;5037647;28;20227;-79
2021/10/18 12:36:46;;;;;;;15.90;12.02;;;15.00;53.90;;;;;;5050204;28;20208;-79
2021/10/18 12:39:12;;;;;;;15.35;12.95;;;15.10;52.90;;;;;;5044801;28;20243;-80
2021/10/18 12:41:43;;;;;;;16.58;12.30;;;14.90;53.30;;;;;;5047536;28;20283;-79
2021/10/18 12:44:13;;;;;;;15.15;12.38;;;14.80;53.70;;;;;;5053643;28;20207;-80
2021/10/18 12:46:41;;;;;;;13.80;11.70;;;14.80;53.70;;;;;;5056294;28;20182;-79
2021/10/18 12:49:08;;;;;;;18.45;12.70;;;14.70;53.60;;;;;;5054929;28;20199;-80
2021/10/18 12:51:42;;;;;;;15.45;11.65;;;14.70;53.60;;;;;;5040400;28;20222;-81
2021/10/18 12:54:24;;;;;;;16.23;11.05;;;14.70;53.60;;;;;;5020304;28;20320;-81
2021/10/18 12:57:03;;;;;;;14.45;11.82;;;14.70;53.60;;;;;;5027678;28;20195;-79
2021/10/18 12:59:33;;;;;;;16.38;11.88;;;14.60;53.50;;;;;;5045411;28;20591;-82
2021/10/18 13:02:21;;;;;;;16.85;12.70;;;14.50;53.40;;;;;;5044426;28;20202;-79
2021/10/18 13:05:08;;;;;;;16.27;13.88;;;14.40;53.30;;;;;;5053587;28;20437;-81
2021/10/18 13:07:36;;;;;;;16.90;12.50;;;14.40;53.30;;;;;;5050095;28;20197;-81
2021/10/18 13:10:04;;;;;;;19.77;12.95;;;14.50;53.40;;;;;;5042628;28;20222;-81
2021/10/18 13:12:34;;;;;;;18.15;13.25;;;14.50;53.40;;;;;;5041665;28;20238;-79
2021/10/18 13:15:03;;;;;;;15.80;12.77;;;14.50;53.40;;;;;;5041523;28;20211;-81
2021/10/18 13:17:30;;;;;;;17.15;12.75;;;14.80;53.80;;;;;;5037692;28;20295;-83
2021/10/18 13:19:57;;;;;;;16.70;12.77;;;14.90;53.80;;;;;;5026396;28;20289;-84
2021/10/18 13:22:24;;;;;;;18.92;13.13;;;14.90;53.80;;;;;;5031412;28;20211;-81
2021/10/18 13:24:52;;;;;;;16.67;13.15;;;14.80;53.70;;;;;;5048342;28;20227;-80
2021/10/18 13:27:19;;;;;;;16.63;12.73;;;14.80;53.70;;;;;;5030738;28;20202;-82
2021/10/18 13:29:47;;;;;;;12.68;11.38;;;14.70;53.60;;;;;;5037723;28;20666;-78
2021/10/18 13:32:16;;;;;;;13.85;12.05;;;14.60;53.50;;;;;;5033377;28;20644;-81
2021/10/18 13:34:43;;;;;;;15.77;12.18;;;14.60;53.50;;;;;;5021387;28;20232;-79
2021/10/18 13:37:11;;;;;;;18.38;13.48;;;14.60;53.50;;;;;;5027710;28;20286;-81
2021/10/18 13:39:38;;;;;;;17.35;12.75;;;14.40;54.70;;;;;;5041431;28;20597;-80
2021/10/18 13:42:05;;;;;;;15.82;12.82;;;14.30;56.90;;;;;;5053718;28;20268;-79
2021/10/18 13:44:33;;;;;;;16.42;12.63;;;14.30;56.30;;;;;;5045213;28;20746;-80
2021/10/18 13:47:00;;;;;;;13.10;11.27;;;14.20;56.70;;;;;;5040194;28;20275;-78
2021/10/18 13:49:28;;;;;;;12.73;11.07;;;14.10;56.90;;;;;;5052465;28;20199;-78
2021/10/18 13:51:55;;;;;;;13.02;11.50;;;14.20;57.20;;;;;;5056546;28;20203;-79
2021/10/18 13:54:22;;;;;;;16.25;12.00;;;14.20;57.80;;;;;;5045905;28;20314;-80
2021/10/18 13:56:49;;;;;;;17.00;11.88;;;14.20;57.70;;;;;;5046595;28;20261;-80